Time;durP1;ratioP1;P1;durP2;ratioP2;P2;SDS_P1;SDS_P2;PMS_P1;PMS_P2;Temp;Humidity;BMP_temperature;BMP_pressure;BME280_temperature;BME280_humidity;BME280_pressure;Samples;Min_cycle;Max_cycle;Signal;HPM_P1;HPM_P2
2021/05/25 00:04:52;;;;;;;2.47;1.60;;;;;;;9.46;68.13;99700.97;8058229;35;20230;-74
2021/05/25 00:09:55;;;;;;;1.27;1.20;;;;;;;9.36;68.04;99705.44;8057725;35;20466;-73
2021/05/25 00:14:59;;;;;;;2.65;1.55;;;;;;;9.58;67.17;99707.09;8061574;35;20214;-74
2021/05/25 00:20:01;;;;;;;1.60;1.48;;;;;;;9.76;66.88;99708.13;8073090;35;20769;-73
2021/05/25 00:25:05;;;;;;;3.17;1.40;;;;;;;9.47;68.93;99700.00;8058573;35;20995;-73
2021/05/25 00:30:14;;;;;;;4.88;1.35;;;;;;;9.26;69.27;99710.72;8058329;35;20483;-74
2021/05/25 00:35:17;;;;;;;2.20;1.20;;;;;;;9.13;70.60;99715.44;8056105;35;20162;-73
2021/05/25 00:40:19;;;;;;;1.65;1.27;;;;;;;9.03;71.62;99715.41;8052273;35;20182;-74
2021/05/25 00:45:23;;;;;;;1.30;1.20;;;;;;;9.18;71.77;99713.22;8051992;35;20561;-74
2021/05/25 00:50:29;;;;;;;1.52;1.20;;;;;;;9.03;70.50;99720.75;8049377;35;20590;-74
2021/05/25 00:55:34;;;;;;;1.73;1.52;;;;;;;8.97;70.76;99727.50;8046519;35;20193;-73
2021/05/25 01:00:41;;;;;;;2.47;1.70;;;;;;;9.45;69.51;99723.41;8046939;35;20502;-74
2021/05/25 01:05:43;;;;;;;2.80;1.70;;;;;;;9.23;69.29;99719.88;8047783;35;20162;-73
2021/05/25 01:10:50;;;;;;;2.20;2.00;;;;;;;9.31;68.91;99732.63;8048379;35;20428;-74
2021/05/25 01:15:54;;;;;;;2.67;1.88;;;;;;;9.12;69.09;99717.28;8049044;35;20896;-73
2021/05/25 01:20:57;;;;;;;1.33;1.20;;;;;;;9.26;68.35;99721.44;8051345;35;20484;-74
2021/05/25 01:26:01;;;;;;;1.38;1.13;;;;;;;9.23;68.32;99713.69;8052331;35;21194;-74
2021/05/25 01:31:05;;;;;;;1.70;1.30;;;;;;;9.09;67.90;99720.22;8052747;35;20463;-74
2021/05/25 01:36:09;;;;;;;1.77;1.33;;;;;;;9.00;68.00;99715.66;8052476;35;20143;-73
2021/05/25 01:41:13;;;;;;;1.70;1.58;;;;;;;9.04;67.90;99734.00;8058274;35;20435;-73
2021/05/25 01:46:16;;;;;;;2.90;1.15;;;;;;;8.68;68.60;99715.69;8065809;35;20584;-74
2021/05/25 01:51:19;;;;;;;1.42;1.00;;;;;;;8.75;67.64;99722.22;8042868;35;20209;-74
2021/05/25 01:56:23;;;;;;;1.48;1.02;;;;;;;8.52;68.24;99710.75;8063279;35;20904;-74
2021/05/25 02:01:25;;;;;;;1.95;1.00;;;;;;;8.73;67.43;99716.16;8052734;35;20222;-73
2021/05/25 02:06:28;;;;;;;2.38;1.30;;;;;;;8.77;67.33;99713.06;8049031;35;20422;-74
2021/05/25 02:11:32;;;;;;;1.50;1.10;;;;;;;8.66;66.95;99717.63;8049560;35;20467;-73
2021/05/25 02:16:34;;;;;;;1.83;1.33;;;;;;;8.49;67.65;99719.91;8046957;35;20191;-73
2021/05/25 02:21:37;;;;;;;2.35;1.08;;;;;;;8.38;67.43;99714.56;8045582;35;20499;-74
2021/05/25 02:26:40;;;;;;;1.42;1.33;;;;;;;8.25;67.67;99716.53;8045303;35;20786;-74
2021/05/25 02:31:43;;;;;;;2.65;1.40;;;;;;;8.52;66.86;99716.13;8046454;35;20857;-74
2021/05/25 02:36:46;;;;;;;1.30;1.20;;;;;;;8.29;66.51;99736.72;8044618;35;20480;-73
2021/05/25 02:41:49;;;;;;;2.15;1.35;;;;;;;8.51;66.28;99725.13;8043767;35;20183;-74
2021/05/25 02:46:52;;;;;;;1.60;1.50;;;;;;;8.51;65.57;99734.00;8044968;35;20466;-73
2021/05/25 02:51:54;;;;;;;1.42;1.33;;;;;;;8.64;65.22;99724.94;8045390;35;20989;-73
2021/05/25 02:56:58;;;;;;;2.40;1.52;;;;;;;8.59;64.88;99736.91;8045888;35;20486;-73
2021/05/25 03:02:01;;;;;;;2.00;1.33;;;;;;;8.48;64.74;99750.31;8025500;35;20458;-73
2021/05/25 03:07:04;;;;;;;3.53;1.80;;;;;;;8.74;64.72;99744.63;8050108;35;20534;-74
2021/05/25 03:12:09;;;;;;;3.00;1.27;;;;;;;8.39;66.64;99754.59;8046346;35;20573;-73
2021/05/25 03:17:11;;;;;;;3.40;1.20;;;;;;;8.01;68.05;99762.16;8045611;35;20183;-74
2021/05/25 03:22:14;;;;;;;1.70;1.60;;;;;;;7.83;68.91;99751.13;8024254;35;20977;-73
2021/05/25 03:27:17;;;;;;;2.20;1.30;;;;;;;7.66;70.17;99769.34;8048500;35;20317;-73
2021/05/25 03:32:21;;;;;;;2.80;1.38;;;;;;;7.90;69.69;99768.41;8053295;35;20451;-73
2021/05/25 03:37:23;;;;;;;1.52;1.23;;;;;;;7.87;69.67;99781.97;8053602;35;20187;-73
2021/05/25 03:42:27;;;;;;;1.95;1.00;;;;;;;7.93;69.16;99782.38;8051273;35;20484;-73
2021/05/25 03:47:29;;;;;;;4.25;1.40;;;;;;;8.07;68.80;99777.75;8044165;35;20198;-73
2021/05/25 03:52:32;;;;;;;1.30;1.20;;;;;;;8.07;68.19;99791.97;8042436;35;20462;-72
2021/05/25 04:02:57;;;;;;;1.42;1.30;;;;;;;8.65;66.48;99791.75;8042231;35;20195;-73
2021/05/25 04:08:00;;;;;;;4.47;1.58;;;;;;;8.69;66.28;99795.03;8042717;35;20974;-74
2021/05/25 04:13:04;;;;;;;1.38;1.27;;;;;;;8.73;65.84;99804.53;8040065;35;20519;-74
2021/05/25 04:18:07;;;;;;;1.45;1.30;;;;;;;8.80;65.79;99803.03;8017299;35;20245;-73
2021/05/25 04:23:10;;;;;;;3.13;1.52;;;;;;;8.88;65.95;99800.56;8042473;35;20477;-73
2021/05/25 04:28:15;;;;;;;1.83;1.60;;;;;;;8.77;66.13;99814.84;8043548;35;20201;-73
2021/05/25 04:33:17;;;;;;;2.88;1.90;;;;;;;8.78;65.94;99815.72;8046070;35;20962;-73
2021/05/25 04:38:20;;;;;;;1.77;1.67;;;;;;;9.04;65.68;99821.56;8051928;35;20684;-73
2021/05/25 04:43:24;;;;;;;2.90;1.77;;;;;;;8.83;65.35;99825.06;8032948;35;20547;-73
2021/05/25 04:48:26;;;;;;;1.70;1.52;;;;;;;8.63;66.21;99817.81;8053286;35;20202;-72
2021/05/25 04:53:29;;;;;;;1.88;1.60;;;;;;;8.69;65.60;99813.78;8051124;35;20404;-73
2021/05/25 04:58:33;;;;;;;3.58;2.65;;;;;;;8.90;64.94;99808.47;8049331;35;20498;-72
2021/05/25 05:03:35;;;;;;;3.45;1.73;;;;;;;8.93;64.90;99827.81;8047042;35;20380;-73
2021/05/25 05:08:43;;;;;;;2.60;1.73;;;;;;;8.81;65.08;99824.34;8022793;35;20482;-72
2021/05/25 05:13:47;;;;;;;2.53;2.22;;;;;;;9.29;64.37;99815.84;8020325;35;20647;-72
2021/05/25 05:18:50;;;;;;;3.30;2.10;;;;;;;9.20;63.89;99827.34;8018274;35;20182;-72
2021/05/25 05:23:54;;;;;;;3.10;2.20;;;;;;;9.15;64.17;99826.88;8039629;35;20341;-72
2021/05/25 05:28:57;;;;;;;2.35;2.13;;;;;;;9.06;64.97;99830.34;8041779;35;20610;-72
2021/05/25 05:34:00;;;;;;;2.08;1.88;;;;;;;8.60;66.82;99834.13;8045458;35;20778;-73
2021/05/25 05:39:04;;;;;;;2.22;1.95;;;;;;;8.19;71.15;99838.28;8043417;35;20579;-73
2021/05/25 05:44:08;;;;;;;3.83;2.00;;;;;;;7.70;71.38;99842.13;8040802;35;20446;-72
2021/05/25 05:49:10;;;;;;;3.05;2.00;;;;;;;8.26;70.52;99830.63;8045162;35;20218;-73
2021/05/25 05:54:13;;;;;;;1.50;1.30;;;;;;;8.43;69.64;99838.13;8025598;35;20499;-73
2021/05/25 05:59:17;;;;;;;2.60;1.42;;;;;;;8.58;67.94;99844.09;8047894;35;20459;-72
2021/05/25 06:04:20;;;;;;;2.65;1.40;;;;;;;8.91;67.50;99845.84;8044766;35;20454;-72
2021/05/25 06:09:23;;;;;;;2.28;1.60;;;;;;;8.67;66.72;99845.19;8048388;35;20453;-72
2021/05/25 06:14:26;;;;;;;2.97;1.52;;;;;;;8.65;65.32;99863.22;8048269;35;20446;-72
2021/05/25 06:19:29;;;;;;;2.35;1.23;;;;;;;8.65;65.05;99865.88;8053705;35;20481;-72
2021/05/25 06:24:32;;;;;;;1.27;1.17;;;;;;;8.73;64.79;99852.72;8052846;35;20572;-72
2021/05/25 06:29:35;;;;;;;1.50;1.23;;;;;;;8.71;64.97;99855.50;8027738;35;20623;-72
2021/05/25 06:34:38;;;;;;;1.75;1.30;;;;;;;8.42;65.02;99852.50;8032202;35;20436;-72
2021/05/25 06:39:40;;;;;;;2.67;1.40;;;;;;;8.80;64.00;99857.47;8017701;35;21053;-72
2021/05/25 06:44:44;;;;;;;1.60;1.42;;;;;;;8.86;63.12;99864.13;8014410;35;20732;-72
2021/05/25 06:49:47;;;;;;;1.98;1.55;;;;;;;9.48;63.35;99865.22;7993064;35;20468;-72
2021/05/25 06:54:49;;;;;;;1.48;1.38;;;;;;;9.23;62.57;99875.31;8036246;35;20468;-73
2021/05/25 06:59:54;;;;;;;1.40;1.30;;;;;;;9.31;61.38;99866.63;8034130;35;20517;-72
2021/05/25 07:04:56;;;;;;;1.00;1.00;;;;;;;9.05;61.15;99871.47;8000336;35;20279;-72
2021/05/25 07:09:59;;;;;;;1.88;1.10;;;;;;;9.40;60.52;99867.69;8020714;35;20231;-73
2021/05/25 07:15:04;;;;;;;2.65;1.27;;;;;;;9.38;60.63;99883.03;8015104;35;21202;-73
2021/05/25 07:20:08;;;;;;;1.50;1.10;;;;;;;9.02;62.21;99883.34;8014091;35;20484;-72
2021/05/25 07:25:12;;;;;;;0.93;0.93;;;;;;;8.57;66.07;99885.25;8068235;35;21491;-72
2021/05/25 07:30:17;;;;;;;1.17;1.10;;;;;;;8.24;68.15;99894.94;8071980;35;20478;-72
2021/05/25 07:35:20;;;;;;;1.40;1.30;;;;;;;8.53;68.08;99894.47;8073324;35;20454;-72
2021/05/25 07:40:23;;;;;;;2.42;1.10;;;;;;;8.65;68.63;99890.81;8071122;35;20990;-73
2021/05/25 07:45:27;;;;;;;1.42;1.20;;;;;;;8.85;68.10;99891.88;8073179;35;20198;-72
2021/05/25 07:50:30;;;;;;;1.95;1.30;;;;;;;9.64;68.17;99880.84;8075523;35;20492;-72
2021/05/25 07:55:34;;;;;;;1.50;1.40;;;;;;;9.84;65.63;99888.03;8068281;35;20568;-72
2021/05/25 08:00:37;;;;;;;1.42;1.33;;;;;;;10.28;63.14;99890.56;8076516;35;20202;-72
2021/05/25 08:05:40;;;;;;;0.90;0.90;;;;;;;9.63;62.58;99882.69;8079350;35;20432;-72
2021/05/25 08:10:43;;;;;;;1.17;1.08;;;;;;;10.03;61.12;99898.06;8064511;35;20479;-71
2021/05/25 08:15:48;;;;;;;1.10;0.90;;;;;;;9.96;60.47;99896.06;8081222;35;20468;-72
2021/05/25 08:20:51;;;;;;;1.77;0.85;;;;;;;10.46;58.43;99891.63;8083270;35;20535;-71
2021/05/25 08:26:04;;;;;;;0.75;0.73;;;;;;;10.77;56.48;99907.72;8016489;35;20156;-72
2021/05/25 08:31:07;;;;;;;1.58;0.77;;;;;;;10.41;57.53;99899.25;8028394;35;20176;-72
2021/05/25 08:36:10;;;;;;;2.25;1.23;;;;;;;10.42;57.44;99898.25;8027258;35;20537;-72
2021/05/25 08:41:13;;;;;;;1.30;1.20;;;;;;;10.39;57.56;99903.88;8042956;35;20468;-72
2021/05/25 08:46:17;;;;;;;1.60;1.35;;;;;;;11.26;55.98;99900.59;8062613;35;20459;-72
2021/05/25 08:51:20;;;;;;;1.27;1.17;;;;;;;11.56;55.12;99890.69;8030716;35;20152;-72
2021/05/25 08:56:23;;;;;;;1.73;1.58;;;;;;;11.71;54.60;99884.75;8032276;35;20892;-72
2021/05/25 09:01:27;;;;;;;2.13;1.70;;;;;;;11.44;54.86;99873.88;8010358;35;20909;-72
2021/05/25 09:06:40;;;;;;;2.08;1.50;;;;;;;11.25;55.03;99889.00;8028186;35;20945;-72
2021/05/25 09:12:00;;;;;;;1.58;1.48;;;;;;;11.72;53.73;99886.44;8047052;35;20488;-72
2021/05/25 09:17:18;;;;;;;1.30;1.10;;;;;;;11.61;51.92;99897.34;8043338;35;20195;-72
2021/05/25 09:22:31;;;;;;;1.73;1.60;;;;;;;11.33;54.46;99908.97;8047681;35;20867;-72
2021/05/25 09:27:38;;;;;;;1.50;1.40;;;;;;;10.82;55.34;99908.16;8018441;35;20198;-72
2021/05/25 09:32:48;;;;;;;2.92;1.75;;;;;;;9.84;61.72;99914.00;8007175;35;20163;-71
2021/05/25 09:37:54;;;;;;;3.03;1.75;;;;;;;9.45;65.35;99927.97;7993065;35;20529;-72
2021/05/25 09:43:15;;;;;;;3.25;2.00;;;;;;;8.50;69.96;99908.09;8027117;35;20202;-71
2021/05/25 09:48:19;;;;;;;2.60;1.77;;;;;;;8.63;69.92;99916.03;8019599;35;20504;-71
2021/05/25 09:53:24;;;;;;;2.72;1.40;;;;;;;10.08;67.47;99920.00;8015755;35;20195;-71
2021/05/25 09:58:38;;;;;;;2.13;1.52;;;;;;;10.85;63.30;99907.88;8030637;35;20465;-71
2021/05/25 10:03:47;;;;;;;1.38;1.27;;;;;;;12.48;59.28;99906.22;8046139;35;20445;-72
2021/05/25 10:08:52;;;;;;;1.30;1.20;;;;;;;11.21;59.92;99917.16;8030697;35;20444;-71
2021/05/25 10:13:54;;;;;;;2.40;1.65;;;;;;;9.38;63.19;99937.53;8052790;35;20218;-71
2021/05/25 10:19:13;;;;;;;1.95;1.60;;;;;;;8.25;70.28;99941.28;8056964;35;20495;-72
2021/05/25 10:24:16;;;;;;;2.78;1.88;;;;;;;7.76;75.61;99943.25;8057535;35;20482;-71
2021/05/25 10:29:19;;;;;;;2.53;2.13;;;;;;;7.40;78.59;99949.56;8057413;35;20146;-71
2021/05/25 10:34:28;;;;;;;3.63;2.15;;;;;;;6.85;79.04;99949.09;8057699;35;20956;-71
2021/05/25 10:39:35;;;;;;;3.10;1.98;;;;;;;7.11;80.43;99941.06;8042484;35;20668;-71
2021/05/25 10:44:45;;;;;;;2.63;2.20;;;;;;;7.84;79.36;99943.50;8021346;35;21312;-72
2021/05/25 10:50:12;;;;;;;4.30;2.70;;;;;;;8.64;78.48;99948.03;8021519;35;20536;-73
2021/05/25 10:55:28;;;;;;;2.80;2.40;;;;;;;9.47;77.22;99944.81;8024857;35;20223;-71
2021/05/25 11:00:36;;;;;;;3.95;3.00;;;;;;;10.66;70.92;99938.19;8022004;35;20358;-71
2021/05/25 11:05:49;;;;;;;3.75;2.35;;;;;;;10.86;69.52;99939.16;8019847;35;20519;-71
2021/05/25 11:10:59;;;;;;;2.67;2.30;;;;;;;11.32;68.12;99928.78;8010821;35;20199;-72
2021/05/25 11:16:07;;;;;;;1.65;1.52;;;;;;;12.00;60.37;99936.81;8005086;35;20505;-71
2021/05/25 11:22:11;;;;;;;1.90;1.80;;;;;;;12.26;64.33;99927.13;8006049;35;20156;-71
2021/05/25 11:27:26;;;;;;;4.03;2.60;;;;;;;12.23;61.62;99940.00;8004025;35;20460;-71
2021/05/25 11:32:31;;;;;;;2.13;1.92;;;;;;;12.13;60.16;99924.75;8005846;35;20214;-71
2021/05/25 11:37:38;;;;;;;2.90;2.17;;;;;;;12.49;57.95;99946.50;8005183;35;20643;-71
2021/05/25 11:42:46;;;;;;;3.63;2.90;;;;;;;12.53;59.54;99923.66;8014263;35;21188;-71
2021/05/25 11:47:53;;;;;;;3.47;3.00;;;;;;;12.55;58.61;99947.75;8017233;35;20442;-71
2021/05/25 11:52:56;;;;;;;3.42;3.13;;;;;;;13.33;57.58;99945.50;8018419;35;20411;-71
2021/05/25 11:57:59;;;;;;;4.25;3.85;;;;;;;12.64;58.85;99930.69;8020651;35;20525;-71
2021/05/25 12:03:08;;;;;;;6.20;4.50;;;;;;;11.93;60.09;99955.41;8019745;35;20159;-71
2021/05/25 12:08:12;;;;;;;6.25;4.95;;;;;;;12.24;59.70;99955.19;8021081;35;20516;-71
2021/05/25 12:13:18;;;;;;;6.07;5.47;;;;;;;14.20;58.02;99930.38;8017941;35;20480;-70
2021/05/25 12:18:24;;;;;;;4.30;3.90;;;;;;;13.88;53.85;99926.44;7988858;35;20162;-72
2021/05/25 12:23:29;;;;;;;4.05;3.65;;;;;;;13.68;51.55;99955.44;7945312;35;20450;-72
2021/05/25 12:28:55;;;;;;;3.67;3.38;;;;;;;13.27;51.35;99917.28;7930475;35;20208;-73
2021/05/25 12:33:58;;;;;;;3.58;3.25;;;;;;;14.01;49.71;99922.47;7930519;35;20438;-73
2021/05/25 12:39:05;;;;;;;2.72;2.53;;;;;;;14.35;47.93;99936.03;7930671;35;20362;-73
2021/05/25 12:44:09;;;;;;;5.07;2.88;;;;;;;13.29;50.57;99936.00;7930200;35;20432;-73
2021/05/25 12:49:31;;;;;;;3.00;2.72;;;;;;;12.17;53.87;99936.06;7930676;35;20443;-73
2021/05/25 12:54:34;;;;;;;7.93;3.00;;;;;;;10.35;68.14;99975.81;7930067;35;20445;-73
2021/05/25 12:59:37;;;;;;;3.08;1.92;;;;;;;8.54;75.23;100011.31;7936871;35;20479;-74
2021/05/25 13:04:39;;;;;;;3.08;2.15;;;;;;;7.62;79.73;100026.31;7997294;35;20692;-73
2021/05/25 13:09:49;;;;;;;4.68;1.40;;;;;;;7.53;79.81;100038.56;8007925;35;20438;-73
2021/05/25 13:15:03;;;;;;;2.15;1.30;;;;;;;7.11;80.60;100050.56;8000683;35;20147;-74
2021/05/25 13:20:20;;;;;;;1.30;1.10;;;;;;;7.50;80.20;100060.16;8001847;35;20488;-74
2021/05/25 13:25:32;;;;;;;2.13;1.38;;;;;;;8.32;80.08;100054.91;7997539;35;20552;-74
2021/05/25 13:30:46;;;;;;;2.83;1.63;;;;;;;8.64;77.68;100065.84;8001690;35;20517;-74
2021/05/25 13:35:49;;;;;;;3.10;1.90;;;;;;;9.09;75.47;100081.09;8011680;35;21916;-73
2021/05/25 13:40:52;;;;;;;2.33;1.80;;;;;;;9.92;74.66;100091.31;8023912;35;20238;-73
2021/05/25 13:45:55;;;;;;;2.03;1.83;;;;;;;11.37;69.46;100095.94;8008213;35;20536;-73
2021/05/25 13:50:58;;;;;;;2.55;1.63;;;;;;;10.00;70.85;100098.72;7998527;35;21170;-73
2021/05/25 13:56:07;;;;;;;2.47;1.80;;;;;;;10.33;70.59;100095.03;8006203;35;20447;-73
2021/05/25 14:01:26;;;;;;;2.00;1.80;;;;;;;10.63;68.53;100094.25;8022541;35;20484;-73
2021/05/25 14:06:29;;;;;;;2.60;1.90;;;;;;;10.26;72.47;100084.00;8035745;35;20822;-72
2021/05/25 14:11:33;;;;;;;3.63;2.38;;;;;;;9.67;69.56;100090.63;8052481;35;20490;-72
2021/05/25 14:16:36;;;;;;;2.53;2.33;;;;;;;9.45;72.74;100085.31;8035246;35;22116;-73
2021/05/25 14:21:39;;;;;;;2.83;2.30;;;;;;;9.56;72.52;100071.88;8002530;35;20620;-73
2021/05/25 14:26:42;;;;;;;3.53;2.22;;;;;;;9.02;75.46;100086.94;8006311;35;20613;-73
2021/05/25 14:31:45;;;;;;;2.97;2.70;;;;;;;9.17;75.36;100084.00;8050037;35;20562;-73
2021/05/25 14:36:48;;;;;;;3.47;2.83;;;;;;;10.07;76.05;100075.78;8045073;35;20143;-73
2021/05/25 14:41:52;;;;;;;4.53;2.78;;;;;;;9.55;71.53;100080.91;8001509;35;20574;-73
2021/05/25 14:46:57;;;;;;;3.58;2.60;;;;;;;10.01;71.85;100077.16;7991829;35;20176;-73
2021/05/25 14:52:00;;;;;;;3.38;2.90;;;;;;;9.92;71.01;100078.75;8011116;35;20194;-73
2021/05/25 14:57:03;;;;;;;2.83;2.50;;;;;;;9.19;72.09;100146.38;8047962;35;20649;-73
2021/05/25 15:02:11;;;;;;;7.13;2.10;;;;;;;4.19;82.18;100194.56;8022384;35;20447;-73
2021/05/25 15:07:20;;;;;;;2.05;1.85;;;;;;;3.66;87.83;100190.47;8027323;35;20182;-73
2021/05/25 15:12:23;;;;;;;2.50;2.30;;;;;;;4.32;87.18;100165.47;8054328;35;20491;-72
2021/05/25 15:17:26;;;;;;;4.28;2.20;;;;;;;4.62;86.93;100162.81;8054326;35;20545;-73
2021/05/25 15:22:29;;;;;;;7.40;2.60;;;;;;;5.14;86.83;100164.13;8027086;35;20466;-73
2021/05/25 15:27:32;;;;;;;5.00;2.45;;;;;;;5.44;85.72;100156.03;8018699;35;20167;-73
2021/05/25 15:32:36;;;;;;;2.70;2.50;;;;;;;5.56;85.62;100139.25;8017935;35;20191;-73
2021/05/25 15:37:40;;;;;;;3.22;2.47;;;;;;;5.94;84.60;100143.91;8007780;35;20455;-73
2021/05/25 15:42:44;;;;;;;2.78;2.15;;;;;;;5.96;85.47;100150.00;8013946;35;20891;-73
2021/05/25 15:47:47;;;;;;;4.78;2.58;;;;;;;6.21;84.65;100162.56;8020485;35;20504;-72
2021/05/25 15:52:49;;;;;;;3.45;2.60;;;;;;;6.47;85.09;100147.47;8017807;35;20634;-72
2021/05/25 15:57:54;;;;;;;9.07;3.30;;;;;;;6.86;85.16;100143.06;8007258;35;20459;-72
2021/05/25 16:02:58;;;;;;;7.03;3.17;;;;;;;7.09;85.11;100144.16;8005395;35;20638;-72
2021/05/25 16:08:02;;;;;;;7.60;3.70;;;;;;;7.08;85.16;100136.25;8020661;35;20256;-72
2021/05/25 16:13:06;;;;;;;4.93;3.50;;;;;;;6.97;85.58;100139.69;8045530;35;20230;-72
2021/05/25 16:18:08;;;;;;;5.28;3.83;;;;;;;6.97;85.78;100124.50;8061080;35;20242;-73
2021/05/25 16:23:11;;;;;;;4.38;3.83;;;;;;;7.58;85.43;100115.75;8049937;35;20552;-73
2021/05/25 16:28:37;;;;;;;5.38;4.47;;;;;;;7.65;84.73;100112.50;8016800;35;20449;-73
2021/05/25 16:33:40;;;;;;;9.05;5.60;;;;;;;7.68;84.91;100108.75;8006763;35;20454;-73
2021/05/25 16:38:42;;;;;;;7.45;5.25;;;;;;;9.02;87.73;100100.34;8004899;35;20288;-73
2021/05/25 16:43:46;;;;;;;8.57;5.70;;;;;;;9.10;84.96;100093.50;8022467;35;20456;-72
2021/05/25 16:48:48;;;;;;;7.47;5.75;;;;;;;9.68;83.84;100094.16;8026479;35;20167;-73
2021/05/25 16:53:51;;;;;;;9.60;5.80;;;;;;;9.19;86.06;100101.69;8001298;35;20470;-72
2021/05/25 16:58:55;;;;;;;5.50;4.45;;;;;;;9.24;85.11;100106.66;8003832;35;20459;-72
2021/05/25 17:04:17;;;;;;;8.68;4.95;;;;;;;12.25;85.06;100091.53;8003613;35;20461;-73
2021/05/25 17:20:06;;;;;;;5.72;4.88;;;;;;;9.11;83.09;100112.16;8003598;35;20465;-72
2021/05/25 17:25:14;;;;;;;4.78;3.83;;;;;;;8.50;83.55;100122.25;8001672;35;20575;-72
2021/05/25 17:30:20;;;;;;;6.63;5.22;;;;;;;8.62;83.81;100110.63;8008096;35;20831;-73
2021/05/25 17:35:23;;;;;;;10.20;6.40;;;;;;;8.80;83.42;100105.66;8003171;35;20590;-73
2021/05/25 17:40:25;;;;;;;7.85;5.13;;;;;;;8.74;82.47;100116.84;8003041;35;20144;-73
2021/05/25 17:45:29;;;;;;;7.38;4.75;;;;;;;8.59;83.38;100103.69;8003633;35;20160;-73
2021/05/25 17:50:32;;;;;;;5.47;4.63;;;;;;;8.74;82.91;100117.69;8018061;35;21056;-73
2021/05/25 17:55:35;;;;;;;2.70;2.43;;;;;;;8.19;81.88;100135.25;8027129;35;21262;-73
2021/05/25 18:00:42;;;;;;;5.95;1.98;;;;;;;7.62;82.90;100139.44;8018380;35;20156;-72
2021/05/25 18:05:45;;;;;;;1.35;1.25;;;;;;;7.56;82.60;100153.25;8000269;35;21102;-73
2021/05/25 18:10:47;;;;;;;1.65;1.40;;;;;;;7.60;81.94;100151.25;8028832;35;20838;-72
2021/05/25 18:16:00;;;;;;;1.83;1.58;;;;;;;7.25;82.43;100165.28;8029559;35;20441;-72
2021/05/25 18:21:05;;;;;;;2.20;1.67;;;;;;;7.21;83.09;100143.28;8015336;35;20262;-72
2021/05/25 18:26:09;;;;;;;4.10;2.28;;;;;;;7.22;82.98;100146.81;8006834;35;20486;-73
2021/05/25 18:31:26;;;;;;;2.30;2.20;;;;;;;7.39;83.23;100153.63;8049078;35;20190;-73
2021/05/25 18:36:40;;;;;;;4.03;2.75;;;;;;;7.06;83.24;100147.03;8034602;35;20596;-73
2021/05/25 18:41:56;;;;;;;4.22;2.65;;;;;;;7.05;82.95;100153.34;8058777;35;20447;-73
2021/05/25 18:47:01;;;;;;;2.53;2.35;;;;;;;7.00;83.33;100147.47;8011868;35;20564;-73
2021/05/25 18:52:05;;;;;;;3.60;3.30;;;;;;;7.28;83.24;100152.56;8000744;35;20148;-73
2021/05/25 18:57:13;;;;;;;3.25;2.95;;;;;;;7.24;83.39;100159.09;8008121;35;20558;-73
2021/05/25 19:02:17;;;;;;;3.50;3.20;;;;;;;7.12;83.50;100159.94;8022376;35;20455;-73
2021/05/25 19:07:19;;;;;;;4.05;3.63;;;;;;;7.21;83.32;100162.00;8045837;35;20159;-72
2021/05/25 19:12:22;;;;;;;4.22;3.83;;;;;;;7.30;82.87;100162.31;8052203;35;20469;-73
2021/05/25 19:17:25;;;;;;;7.05;4.32;;;;;;;7.19;82.59;100168.41;8051291;35;20211;-73
2021/05/25 19:22:32;;;;;;;4.75;3.50;;;;;;;7.30;82.95;100170.31;8050622;35;20647;-73
2021/05/25 19:27:37;;;;;;;4.80;4.38;;;;;;;7.36;83.08;100178.75;8061709;35;20238;-73
2021/05/25 19:32:40;;;;;;;5.10;4.13;;;;;;;7.50;83.14;100178.63;8068743;35;20147;-73
2021/05/25 19:37:43;;;;;;;6.18;4.97;;;;;;;7.59;83.13;100182.44;8057232;35;20474;-73
2021/05/25 19:42:46;;;;;;;7.05;4.95;;;;;;;7.59;83.10;100174.41;8057942;35;20499;-73
2021/05/25 19:47:49;;;;;;;6.75;5.15;;;;;;;7.62;83.35;100176.03;8035094;35;20186;-73
2021/05/25 19:52:53;;;;;;;8.02;6.00;;;;;;;7.73;83.26;100176.97;8057691;35;21081;-74
2021/05/25 19:57:56;;;;;;;8.48;5.70;;;;;;;7.70;82.89;100182.50;8038822;35;20551;-73
2021/05/25 20:02:59;;;;;;;10.32;6.15;;;;;;;7.68;83.10;100188.97;8039856;35;20203;-73
2021/05/25 20:08:02;;;;;;;8.90;5.70;;;;;;;7.77;82.82;100180.28;8030797;35;20552;-73
2021/05/25 20:13:05;;;;;;;10.70;7.03;;;;;;;7.92;82.58;100181.81;8053245;35;20966;-73
2021/05/25 20:18:09;;;;;;;10.05;6.55;;;;;;;8.00;82.68;100183.09;8006797;35;20555;-73
2021/05/25 20:23:12;;;;;;;10.90;6.25;;;;;;;7.99;82.46;100194.75;7979358;35;20286;-73
2021/05/25 20:28:15;;;;;;;9.10;6.35;;;;;;;7.89;82.60;100183.88;8011166;35;22029;-73
2021/05/25 20:33:31;;;;;;;11.15;8.48;;;;;;;7.74;82.99;100185.84;8002607;35;20485;-73
2021/05/25 20:38:34;;;;;;;11.40;8.05;;;;;;;7.92;82.96;100191.66;8055124;35;20373;-73
2021/05/25 20:43:36;;;;;;;12.10;9.48;;;;;;;7.91;82.50;100198.00;8048179;35;20183;-73
2021/05/25 20:48:41;;;;;;;11.73;8.55;;;;;;;7.92;82.21;100192.50;8050433;35;20484;-73
2021/05/25 20:53:43;;;;;;;12.98;9.45;;;;;;;8.02;81.74;100181.16;8050363;35;21480;-73
2021/05/25 20:58:46;;;;;;;12.20;8.18;;;;;;;7.99;80.50;100190.25;8050139;35;20999;-73
2021/05/25 21:03:50;;;;;;;14.40;9.07;;;;;;;7.87;81.53;100170.63;8052678;35;20482;-73
2021/05/25 21:08:52;;;;;;;10.70;6.35;;;;;;;7.82;81.35;100190.66;8052056;35;20155;-73
2021/05/25 21:13:55;;;;;;;11.95;6.70;;;;;;;7.95;81.25;100194.09;8032561;35;20665;-74
2021/05/25 21:18:58;;;;;;;12.77;8.65;;;;;;;8.10;81.04;100184.97;8026960;35;20387;-73
2021/05/25 21:24:01;;;;;;;10.35;6.32;;;;;;;7.97;81.58;100181.47;8031055;35;20529;-74
2021/05/25 21:29:05;;;;;;;8.07;5.75;;;;;;;7.82;81.07;100183.47;8031167;35;20583;-73
2021/05/25 21:34:08;;;;;;;15.85;9.10;;;;;;;7.73;81.29;100173.41;8029303;35;20155;-73
2021/05/25 21:39:11;;;;;;;13.43;7.18;;;;;;;7.92;81.72;100175.63;8031890;35;21492;-72
2021/05/25 21:44:14;;;;;;;10.65;7.22;;;;;;;7.71;81.63;100176.22;8045061;35;20449;-73
2021/05/25 21:49:17;;;;;;;13.80;9.95;;;;;;;8.06;81.18;100171.91;8040457;35;20152;-73
2021/05/25 21:54:25;;;;;;;13.48;8.57;;;;;;;8.17;81.02;100171.97;8043282;35;20290;-74
2021/05/25 21:59:28;;;;;;;13.52;8.88;;;;;;;8.14;81.10;100166.84;8042616;35;20246;-74
2021/05/25 22:04:31;;;;;;;12.25;7.97;;;;;;;7.93;81.18;100166.66;8026373;35;20156;-73
2021/05/25 22:09:34;;;;;;;13.00;8.57;;;;;;;8.21;81.03;100170.78;7996099;35;20437;-74
2021/05/25 22:14:36;;;;;;;15.57;8.45;;;;;;;7.67;81.45;100157.84;7998318;35;20210;-73
2021/05/25 22:19:40;;;;;;;17.08;10.70;;;;;;;8.03;81.69;100156.94;8022122;35;20147;-73
2021/05/25 22:24:43;;;;;;;18.08;10.85;;;;;;;7.78;82.14;100147.22;8022647;35;20523;-73
2021/05/25 22:29:45;;;;;;;20.73;11.95;;;;;;;7.49;83.22;100152.88;8020495;35;20211;-73
2021/05/25 22:34:49;;;;;;;18.83;11.05;;;;;;;7.52;82.78;100157.13;8016793;35;20458;-73
2021/05/25 22:39:52;;;;;;;17.45;11.02;;;;;;;7.58;82.87;100129.97;7996119;35;20427;-72
2021/05/25 22:44:54;;;;;;;19.75;12.52;;;;;;;7.69;82.74;100130.03;8018204;35;20186;-71
2021/05/25 22:49:58;;;;;;;20.92;11.45;;;;;;;7.77;82.55;100142.84;8046333;35;20543;-72
2021/05/25 22:55:01;;;;;;;20.27;11.32;;;;;;;7.51;82.50;100120.66;8045621;35;21289;-72
2021/05/25 23:00:06;;;;;;;21.85;12.85;;;;;;;7.75;82.72;100126.03;8070147;35;20148;-71
2021/05/25 23:05:13;;;;;;;15.93;7.90;;;;;;;7.35;82.56;100118.25;8070514;35;20483;-72
2021/05/25 23:10:16;;;;;;;16.92;9.43;;;;;;;7.17;83.24;100125.75;8070956;35;20448;-71
2021/05/25 23:15:19;;;;;;;15.75;9.80;;;;;;;7.39;82.53;100114.38;8056452;35;20250;-71
2021/05/25 23:20:23;;;;;;;23.15;10.38;;;;;;;7.63;82.14;100119.78;8057099;35;20467;-71
2021/05/25 23:25:25;;;;;;;17.30;9.45;;;;;;;7.42;82.76;100118.66;8058547;35;20155;-73
2021/05/25 23:30:28;;;;;;;19.17;10.38;;;;;;;7.43;83.44;100121.25;8055266;35;20443;-71
2021/05/25 23:35:32;;;;;;;13.02;7.38;;;;;;;7.45;82.71;100121.97;8056479;35;21236;-72
2021/05/25 23:40:34;;;;;;;16.63;10.18;;;;;;;7.58;82.65;100118.41;8063435;35;20285;-72
2021/05/25 23:45:37;;;;;;;18.10;10.50;;;;;;;7.34;83.31;100111.19;8047833;35;21055;-72
2021/05/25 23:50:40;;;;;;;13.57;9.45;;;;;;;7.33;83.45;100117.50;8069686;35;20205;-73
2021/05/25 23:55:43;;;;;;;15.93;9.82;;;;;;;7.49;82.73;100103.91;8067992;35;20480;-73
